Page Field
KFMY : now visible

Airfield :











YOU CAN JOIN US ON...

 
LOGIN :

Register | Disclaimer

   EN    FR    IT 

 









Legend :    VFR   Marginal VFR   IFR   Intensive IFR   Very Intensive IFR
Visi :
Ceiling :
>= 8 km
>= 3000ft
5 to 8 km
1000 to 3000 ft
1500m to 5 km
500 to 1000 ft
800 to 1500m
200 to 500 ft
< 800m
< 200 ft
Symbols :   Thunderstorms  Fog  Heavy snow  Heavy precipitations  Wind > 20 kt






- Airport Elevation : 17 ft


KFMY - Page Field

CURRENT METAR :
  • 072053Z 29011KT 10SM CLR 31/20 A2997 RMK AO2 SLP151 T03110200 56023

EXPIRED METARs :
  • 072020Z 25010KT 10SM FEW042 SCT055 31/20 A2998 RMK AO2 T03060200
  • 071953Z 36005KT 10SM FEW060 33/18 A2998 RMK AO2 SLP155 T03330178
  • 071853Z 00000KT 10SM BKN055 32/18 A3001 RMK AO2 SLP165 T03170178

TAF KFMY
Valid from the 07 at 18:00 until the 08 at 18:00 UTC


071721Z 0718/0818 VRB04KT P6SM SCT040
FM072000 29010KT P6SM SCT050
FM080200 VRB05KT P6SM FEW060



MET'MAP, your aeronautical weather chart ! - Copyright ORBIFLY December 2007 - Disclaimer

ORBIFLY MET'MAP TEAM :

Programming & Development : Alexandra Zaïnal
Concept & original design : Baudouin d'Aumeries
Assistance for programming : Marc-Olivier Méhu
Technical & hardware support : Manuel Goepfert

Contact : metmap@orbifly.com




SOURCES & CREDITS :

   NOAA       Earth
Advisory